sensor_id;sensor_type;location;lat;lon;timestamp;temperature;humidity
21883;DHT22;11106;47.864;13.054;2022-12-08T00:03:47;2.10;99.90
21883;DHT22;11106;47.864;13.054;2022-12-08T00:08:47;1.70;99.90
21883;DHT22;11106;47.864;13.054;2022-12-08T00:14:07;1.60;99.90
21883;DHT22;11106;47.864;13.054;2022-12-08T00:19:07;1.60;99.90
21883;DHT22;11106;47.864;13.054;2022-12-08T00:24:08;1.50;99.90
21883;DHT22;11106;47.864;13.054;2022-12-08T00:29:09;1.40;99.90
21883;DHT22;11106;47.864;13.054;2022-12-08T00:34:14;1.40;99.90
21883;DHT22;11106;47.864;13.054;2022-12-08T00:39:16;1.30;99.90
21883;DHT22;11106;47.864;13.054;2022-12-08T00:44:17;1.30;99.90
21883;DHT22;11106;47.864;13.054;2022-12-08T00:49:18;1.20;99.90
21883;DHT22;11106;47.864;13.054;2022-12-08T00:54:19;1.10;99.90
21883;DHT22;11106;47.864;13.054;2022-12-08T00:59:20;1.10;99.90
21883;DHT22;11106;47.864;13.054;2022-12-08T01:04:21;1.00;99.90
21883;DHT22;11106;47.864;13.054;2022-12-08T01:09:22;0.90;99.90
21883;DHT22;11106;47.864;13.054;2022-12-08T01:14:22;0.80;99.90
21883;DHT22;11106;47.864;13.054;2022-12-08T01:19:23;0.70;99.90
21883;DHT22;11106;47.864;13.054;2022-12-08T01:24:24;0.70;99.90
21883;DHT22;11106;47.864;13.054;2022-12-08T01:29:26;0.60;99.90
21883;DHT22;11106;47.864;13.054;2022-12-08T01:34:27;0.60;99.90
21883;DHT22;11106;47.864;13.054;2022-12-08T01:39:27;0.50;99.90
21883;DHT22;11106;47.864;13.054;2022-12-08T01:49:32;0.40;99.90
21883;DHT22;11106;47.864;13.054;2022-12-08T02:00:08;0.30;99.90
21883;DHT22;11106;47.864;13.054;2022-12-08T02:05:09;0.30;99.90
21883;DHT22;11106;47.864;13.054;2022-12-08T02:10:13;0.20;99.90
21883;DHT22;11106;47.864;13.054;2022-12-08T02:15:16;0.20;99.90
21883;DHT22;11106;47.864;13.054;2022-12-08T02:31:08;0.00;99.90
21883;DHT22;11106;47.864;13.054;2022-12-08T07:08:16;0.00;99.90
21883;DHT22;11106;47.864;13.054;2022-12-08T07:58:26;-0.70;99.90
21883;DHT22;11106;47.864;13.054;2022-12-08T08:03:27;3.70;99.90
21883;DHT22;11106;47.864;13.054;2022-12-08T08:18:29;5.20;99.90
21883;DHT22;11106;47.864;13.054;2022-12-08T15:21:29;4.00;99.90
21883;DHT22;11106;47.864;13.054;2022-12-08T15:26:37;3.80;99.90
21883;DHT22;11106;47.864;13.054;2022-12-08T15:31:39;3.60;99.90
21883;DHT22;11106;47.864;13.054;2022-12-08T15:36:40;3.40;99.90
21883;DHT22;11106;47.864;13.054;2022-12-08T15:41:42;3.30;99.90
21883;DHT22;11106;47.864;13.054;2022-12-08T15:51:44;3.10;99.90
21883;DHT22;11106;47.864;13.054;2022-12-08T15:56:53;2.70;99.90
21883;DHT22;11106;47.864;13.054;2022-12-08T16:01:54;2.60;99.90
21883;DHT22;11106;47.864;13.054;2022-12-08T16:06:54;2.50;99.90
21883;DHT22;11106;47.864;13.054;2022-12-08T16:11:55;2.40;99.90
21883;DHT22;11106;47.864;13.054;2022-12-08T16:17:18;2.30;99.90
21883;DHT22;11106;47.864;13.054;2022-12-08T16:22:24;2.20;99.90
21883;DHT22;11106;47.864;13.054;2022-12-08T16:27:28;2.00;99.90
21883;DHT22;11106;47.864;13.054;2022-12-08T16:32:29;1.90;99.90
21883;DHT22;11106;47.864;13.054;2022-12-08T16:52:41;1.80;99.90
21883;DHT22;11106;47.864;13.054;2022-12-08T16:57:43;1.40;99.90
21883;DHT22;11106;47.864;13.054;2022-12-08T17:02:44;1.30;99.90
21883;DHT22;11106;47.864;13.054;2022-12-08T17:07:47;1.20;99.90
21883;DHT22;11106;47.864;13.054;2022-12-08T17:12:49;1.10;99.90
21883;DHT22;11106;47.864;13.054;2022-12-08T17:17:49;1.00;99.90
21883;DHT22;11106;47.864;13.054;2022-12-08T17:22:53;0.90;99.90
21883;DHT22;11106;47.864;13.054;2022-12-08T17:27:54;0.90;99.90
21883;DHT22;11106;47.864;13.054;2022-12-08T17:32:56;0.80;99.90
21883;DHT22;11106;47.864;13.054;2022-12-08T17:37:56;0.60;99.90
21883;DHT22;11106;47.864;13.054;2022-12-08T17:42:57;0.50;99.90
21883;DHT22;11106;47.864;13.054;2022-12-08T17:58:00;0.50;99.90
21883;DHT22;11106;47.864;13.054;2022-12-08T18:03:01;0.30;99.90
21883;DHT22;11106;47.864;13.054;2022-12-08T18:08:01;0.20;99.90
21883;DHT22;11106;47.864;13.054;2022-12-08T18:13:03;0.20;99.90
21883;DHT22;11106;47.864;13.054;2022-12-08T18:18:04;0.10;99.90
21883;DHT22;11106;47.864;13.054;2022-12-08T18:23:05;0.00;99.90
21883;DHT22;11106;47.864;13.054;2022-12-08T18:28:06;0.00;99.90
21883;DHT22;11106;47.864;13.054;2022-12-08T18:33:07;-0.10;99.90
21883;DHT22;11106;47.864;13.054;2022-12-08T18:38:07;-0.10;99.90
21883;DHT22;11106;47.864;13.054;2022-12-08T18:43:08;-0.10;99.90
21883;DHT22;11106;47.864;13.054;2022-12-08T19:13:15;-0.20;99.90
21883;DHT22;11106;47.864;13.054;2022-12-08T19:18:16;-0.40;99.90
21883;DHT22;11106;47.864;13.054;2022-12-08T19:23:17;-0.40;99.90
21883;DHT22;11106;47.864;13.054;2022-12-08T19:28:18;-0.50;99.90
21883;DHT22;11106;47.864;13.054;2022-12-08T19:33:19;-0.60;99.90
21883;DHT22;11106;47.864;13.054;2022-12-08T19:38:20;-0.70;99.90
21883;DHT22;11106;47.864;13.054;2022-12-08T19:43:21;-0.70;99.90
21883;DHT22;11106;47.864;13.054;2022-12-08T19:48:51;-0.70;99.90
21883;DHT22;11106;47.864;13.054;2022-12-08T19:53:52;-0.70;99.90
21883;DHT22;11106;47.864;13.054;2022-12-08T19:58:53;-0.80;99.90
21883;DHT22;11106;47.864;13.054;2022-12-08T20:03:54;-0.80;99.90
21883;DHT22;11106;47.864;13.054;2022-12-08T20:08:54;-0.80;99.90
21883;DHT22;11106;47.864;13.054;2022-12-08T20:13:55;-0.90;99.90
21883;DHT22;11106;47.864;13.054;2022-12-08T20:18:56;-1.00;99.90
21883;DHT22;11106;47.864;13.054;2022-12-08T20:23:57;-1.00;99.90
21883;DHT22;11106;47.864;13.054;2022-12-08T20:28:58;-1.10;99.90
21883;DHT22;11106;47.864;13.054;2022-12-08T20:33:58;-1.10;99.90
21883;DHT22;11106;47.864;13.054;2022-12-08T20:38:59;-1.10;99.90
21883;DHT22;11106;47.864;13.054;2022-12-08T20:44:00;-1.10;99.90
21883;DHT22;11106;47.864;13.054;2022-12-08T20:49:02;-1.20;99.90
21883;DHT22;11106;47.864;13.054;2022-12-08T20:54:03;-1.30;99.90
21883;DHT22;11106;47.864;13.054;2022-12-08T20:59:04;-1.30;99.90
21883;DHT22;11106;47.864;13.054;2022-12-08T21:04:05;-1.20;99.90
21883;DHT22;11106;47.864;13.054;2022-12-08T21:09:06;-1.30;99.90
21883;DHT22;11106;47.864;13.054;2022-12-08T21:14:06;-1.40;99.90
21883;DHT22;11106;47.864;13.054;2022-12-08T21:19:07;-1.30;99.90
21883;DHT22;11106;47.864;13.054;2022-12-08T21:24:09;-1.40;99.90
21883;DHT22;11106;47.864;13.054;2022-12-08T21:29:10;-1.40;99.90
21883;DHT22;11106;47.864;13.054;2022-12-08T21:34:11;-1.50;99.90
21883;DHT22;11106;47.864;13.054;2022-12-08T21:39:12;-1.50;99.90
21883;DHT22;11106;47.864;13.054;2022-12-08T21:44:14;-1.50;99.90
21883;DHT22;11106;47.864;13.054;2022-12-08T21:49:17;-1.50;99.90
21883;DHT22;11106;47.864;13.054;2022-12-08T21:54:18;-1.50;99.90
21883;DHT22;11106;47.864;13.054;2022-12-08T21:59:19;-1.50;99.90
21883;DHT22;11106;47.864;13.054;2022-12-08T22:04:20;-1.60;99.90
21883;DHT22;11106;47.864;13.054;2022-12-08T22:09:21;-1.70;99.90
21883;DHT22;11106;47.864;13.054;2022-12-08T22:14:22;-1.60;99.90
21883;DHT22;11106;47.864;13.054;2022-12-08T22:19:22;-1.60;99.90
21883;DHT22;11106;47.864;13.054;2022-12-08T22:24:24;-1.70;99.90
21883;DHT22;11106;47.864;13.054;2022-12-08T22:29:25;-1.60;99.90
21883;DHT22;11106;47.864;13.054;2022-12-08T22:34:25;-1.70;99.90
21883;DHT22;11106;47.864;13.054;2022-12-08T22:39:26;-1.80;99.90
21883;DHT22;11106;47.864;13.054;2022-12-08T22:44:27;-1.80;99.90
21883;DHT22;11106;47.864;13.054;2022-12-08T22:49:28;-1.80;99.90
21883;DHT22;11106;47.864;13.054;2022-12-08T22:54:28;-1.80;99.90
21883;DHT22;11106;47.864;13.054;2022-12-08T22:59:29;-1.80;99.90
21883;DHT22;11106;47.864;13.054;2022-12-08T23:04:33;-1.90;99.90
21883;DHT22;11106;47.864;13.054;2022-12-08T23:09:34;-1.80;99.90
